• Join FlightAware (Why Join?)
  • Login
  • US Flag 
05:10AM EDT


 

Airport Tracker/Info


-or-


 

Live Flight TrackerFlight Track Log ✈ SWA1046 ✈ 08-May-2013 ✈ KALB - KMCO

Flight Track Log - Related Links

Times and Time Zones

All times are in EDT time to prevent confusion due to time zone crossing. See the SWA1046 flight status page for this flight to view local times or setup timezone preferences in your user account.

Time Position Orientation Groundspeed Altitude Reporting Facility
EDT Latitude Longitude Course Direction KTS MPH feet Rate Location/Type
07:52AM 42.7297 -73.8081 251° West 154 177 1,200  Level Boston Center
07:53AM 42.7122 -73.8756 251° West 215 247 4,800 2,340 Climbing Boston Center
07:54AM 42.7258 -73.9606 282° West 227 261 7,600 2,880 Climbing Boston Center
07:55AM 42.6997 -74.0333 244° Southwest 219 252 10,600 2,640 Climbing Boston Center
07:56AM 42.6186 -74.0172 172° South 180 207 12,900 2,820 Climbing Boston Center
07:57AM 42.5150 -73.9892 169° South 277 319 16,300 2,880 Climbing Boston Center
07:58AM 42.4256 -73.9703 171° South 351 404 18,700 2,760 Climbing Boston Center
07:59AM 42.3050 -73.9503 173° South 381 438 21,900 3,000 Climbing Boston Center
08:00AM 42.1967 -73.9308 172° South 394 453 24,700 2,520 Climbing Boston Center
08:01AM 42.0867 -73.9089 172° South 399 459 27,000 2,040 Climbing Boston Center
08:02AM 41.9703 -73.8867 172° South 412 474 28,800 1,740 Climbing Boston Center
08:03AM 41.8536 -73.8644 172° South 424 488 30,500 2,100 Climbing Boston Center
08:06AM 41.5950 -73.8197 173° South 429 494 35,800 2,340 Climbing New York Center
08:07AM 41.4889 -73.8175 179° South 395 455 38,300 1,320 Climbing New York Center
08:08AM 41.3933 -73.8103 177° South 384 442 38,400 300 Climbing New York Center
08:09AM 41.2831 -73.8056 178° South 384 442 39,000 480 Climbing New York Center
08:10AM 41.1667 -73.8692 202° Southwest 399 459 39,400 360 Climbing New York Center
08:11AM 41.0733 -73.9364 209° Southwest 424 488 39,800 240 Climbing New York Center
08:12AM 40.9544 -74.0158 207° Southwest 439 505 40,000 60 Climbing New York Center
08:13AM 40.8442 -74.0903 207° Southwest 439 505 40,000  Level New York Center
08:14AM 40.7381 -74.1589 206° Southwest 444 511 40,000  Level New York Center
08:15AM 40.6317 -74.2303 207° Southwest 438 504 40,000  Level New York Center
08:16AM 40.5278 -74.2986 207° Southwest 438 504 40,000  Level New York Center
08:18AM 40.3225 -74.4406 208° Southwest 420 483 40,000  Level Washington Center
08:19AM 40.2189 -74.5075 206° Southwest 420 483 40,000  Level Washington Center
08:20AM 40.1156 -74.5769 207° Southwest 420 483 40,000  Level Washington Center
08:21AM 40.0119 -74.6461 207° Southwest 420 483 40,000  Level Washington Center
08:22AM 39.9083 -74.7125 206° Southwest 420 483 40,000  Level Washington Center
08:23AM 39.8044 -74.7839 208° Southwest 425 489 40,000  Level Washington Center
08:24AM 39.7008 -74.8525 207° Southwest 425 489 40,000  Level Washington Center
08:25AM 39.6033 -74.9156 206° Southwest 425 489 40,000  Level Washington Center
08:26AM 39.5014 -74.9811 206° Southwest 425 489 40,000  Level Washington Center
08:27AM 39.3997 -75.0464 206° Southwest 425 489 40,000  Level Washington Center
08:28AM 39.2978 -75.1142 207° Southwest 419 482 40,000  Level Washington Center
08:29AM 39.1897 -75.1606 198° South 414 476 40,000  Level Washington Center
08:30AM 39.0814 -75.2039 197° South 414 476 40,000  Level Washington Center
08:31AM 38.9692 -75.2500 198° South 414 476 40,000  Level Washington Center
08:32AM 38.8586 -75.3011 200° South 420 483 40,000  Level Washington Center
08:33AM 38.7461 -75.3467 198° South 425 489 40,000  Level Washington Center
08:34AM 38.6339 -75.3950 199° South 425 489 40,000  Level Washington Center
08:35AM 38.5211 -75.4406 198° South 425 489 40,000  Level Washington Center
08:36AM 38.4067 -75.4858 197° South 430 495 40,000  Level Washington Center
08:37AM 38.2919 -75.5361 199° South 430 495 40,000  Level Washington Center
08:38AM 38.1836 -75.6075 207° Southwest 430 495 40,000  Level Washington Center
08:39AM 38.0772 -75.6736 206° Southwest 435 501 40,000  Level Washington Center
08:40AM 37.9625 -75.7525 208° Southwest 435 501 40,000  Level Washington Center
08:41AM 37.8558 -75.8153 205° Southwest 427 491 40,000  Level Washington Center
08:42AM 37.7517 -75.8808 206° Southwest 421 484 40,000  Level Washington Center
08:43AM 37.6450 -75.9486 207° Southwest 421 484 40,000  Level Washington Center
08:44AM 37.5406 -76.0108 205° Southwest 426 490 40,000  Level Washington Center
08:45AM 37.4339 -76.0756 206° Southwest 426 490 40,000  Level Washington Center
08:46AM 37.3314 -76.1378 206° Southwest 426 490 40,000  Level Washington Center
08:47AM 37.2331 -76.1917 204° Southwest 426 490 40,000  Level Washington Center
08:48AM 37.1286 -76.2561 206° Southwest 426 490 40,000  Level Washington Center
08:49AM 37.0217 -76.3203 206° Southwest 426 490 40,000  Level Washington Center
08:50AM 36.9169 -76.3817 205° Southwest 426 490 40,000  Level Washington Center
08:51AM 36.8042 -76.4325 200° South 426 490 40,000  Level Washington Center
08:52AM 36.6825 -76.4881 200° South 426 490 40,000  Level Washington Center
08:53AM 36.5697 -76.5333 198° South 431 496 40,000  Level Washington Center
08:54AM 36.4567 -76.5836 200° South 431 496 40,000  Level Washington Center
08:55AM 36.3456 -76.6311 199° South 431 496 40,000  Level Washington Center
08:56AM 36.2408 -76.6736 198° South 431 496 40,000  Level Washington Center
08:57AM 36.1300 -76.7208 199° South 431 496 40,000  Level Washington Center
08:58AM 36.0189 -76.7681 199° South 426 490 40,000  Level Washington Center
08:59AM 35.9078 -76.8178 200° South 426 490 40,000  Level Washington Center
09:00AM 35.7989 -76.8622 198° South 426 490 40,000  Level Washington Center
09:01AM 35.6897 -76.9039 197° South 426 490 40,000  Level Washington Center
09:02AM 35.5850 -76.9533 201° Southwest 420 483 40,000  Level Washington Center
09:03AM 35.4758 -76.9975 198° South 420 483 40,000  Level Washington Center
09:04AM 35.3647 -77.0464 200° South 420 483 40,000  Level Washington Center
09:05AM 35.2558 -77.0903 198° South 420 483 40,000  Level Washington Center
09:06AM 35.1467 -77.1364 199° South 420 483 40,000  Level Washington Center
09:07AM 35.0333 -77.1825 198° South 420 483 40,000  Level Washington Center
09:08AM 34.9242 -77.2286 199° South 420 483 40,000  Level Washington Center
09:09AM 34.8150 -77.2769 200° South 425 489 40,000  Level Washington Center
09:10AM 34.7081 -77.3203 198° South 425 489 40,000  Level Washington Center
09:11AM 34.5989 -77.3658 199° South 425 489 40,000  Level Washington Center
09:12AM 34.4919 -77.4114 199° South 420 483 40,000  Level Washington Center
09:13AM 34.3806 -77.4542 198° South 420 483 40,000  Level Washington Center
09:14AM 34.2714 -77.4994 199° South 420 483 40,000  Level Washington Center
09:15AM 34.0892 -77.5694 198° South 410 472 40,000  Level Jacksonville Center
09:16AM 33.9783 -77.6136 198° South 410 472 40,000  Level Jacksonville Center
09:17AM 33.8694 -77.6553 198° South 416 479 40,000  Level Jacksonville Center
09:18AM 33.7592 -77.7069 201° Southwest 416 479 40,000  Level Jacksonville Center
09:19AM 33.6481 -77.7458 196° South 416 479 40,000  Level Jacksonville Center
09:20AM 33.5369 -77.7897 198° South 421 484 40,000  Level Jacksonville Center
09:21AM 33.4283 -77.8356 199° South 421 484 40,000  Level Jacksonville Center
09:22AM 33.3172 -77.8769 197° South 421 484 40,000  Level Jacksonville Center
09:23AM 33.2042 -77.9203 198° South 421 484 40,000  Level Jacksonville Center
09:24AM 33.0956 -77.9661 199° South 421 484 40,000  Level Jacksonville Center
09:25AM 32.9844 -78.0094 198° South 421 484 40,000  Level Jacksonville Center
09:26AM 32.8775 -78.0472 197° South 421 484 40,000  Level Jacksonville Center
09:27AM 32.7811 -78.0919 201° Southwest 421 484 40,000  Level Jacksonville Center
09:28AM 32.6719 -78.1325 197° South 421 484 40,000  Level Jacksonville Center
09:29AM 32.5628 -78.1750 198° South 421 484 40,000  Level Jacksonville Center
09:30AM 32.4539 -78.2175 198° South 421 484 40,000  Level Jacksonville Center
09:31AM 32.3447 -78.2600 198° South 421 484 40,000  Level Jacksonville Center
09:32AM 32.2378 -78.3047 199° South 416 479 40,000  Level Jacksonville Center
09:33AM 32.1331 -78.3469 199° South 416 479 40,000  Level Jacksonville Center
09:34AM 32.0258 -78.3889 198° South 416 479 40,000  Level Jacksonville Center
09:35AM 31.9189 -78.4308 198° South 410 472 40,000  Level Jacksonville Center
09:36AM 31.8139 -78.4725 199° South 410 472 40,000  Level Jacksonville Center
09:37AM 31.7089 -78.5117 198° South 405 466 40,000  Level Jacksonville Center
09:38AM 31.6036 -78.5508 198° South 400 460 40,000  Level Jacksonville Center
09:39AM 31.4986 -78.5900 198° South 400 460 40,000  Level Jacksonville Center
09:40AM 31.3894 -78.6314 198° South 400 460 40,000  Level Jacksonville Center
09:41AM 31.2864 -78.6725 199° South 405 466 40,000  Level Jacksonville Center
09:42AM 31.1811 -78.7136 198° South 405 466 40,000  Level Jacksonville Center
09:43AM 31.0722 -78.7622 201° Southwest 405 466 40,000  Level Jacksonville Center
09:44AM 30.9547 -78.8086 199° South 405 466 40,000  Level Jacksonville Center
09:45AM 30.8456 -78.8544 200° South 416 479 40,000  Level Jacksonville Center
09:46AM 30.7403 -78.8975 199° South 406 467 40,000  Level Jacksonville Center
09:47AM 30.6375 -78.9428 201° Southwest 410 472 40,000  Level Jacksonville Center
09:48AM 30.5503 -78.9747 198° South 405 466 40,000  Level Miami Center
09:49AM 30.4475 -79.0183 200° South 399 459 40,000  Level Miami Center
09:50AM 30.3425 -79.0619 200° South 405 466 40,000  Level Miami Center
09:51AM 30.2356 -79.1053 199° South 405 466 40,000  Level Miami Center
09:52AM 30.1369 -79.1464 200° South 405 466 40,000 -300 Level Miami Center
09:53AM 30.0278 -79.1894 199° South 410 472 39,400 -1,140 Descending Miami Center
09:54AM 29.9289 -79.2425 205° Southwest 399 459 37,800 -1,740 Descending Miami Center
09:55AM 29.8219 -79.2831 198° South 399 459 36,000 -1,860 Descending Miami Center
09:56AM 29.7169 -79.3261 200° South 399 459 34,100 -1,500 Descending Miami Center
09:57AM 29.6014 -79.3689 198° South 412 474 33,100 -960 Descending Miami Center
09:58AM 29.4983 -79.4167 202° Southwest 412 474 32,200 -960 Descending Miami Center
09:59AM 29.3850 -79.4592 198° South 417 480 31,200 -960 Descending Miami Center
10:00AM 29.2736 -79.5089 201° Southwest 426 490 30,300 -600 Descending Miami Center
10:01AM 29.1581 -79.5464 196° South 438 504 30,000 -180 Descending Miami Center
10:02AM 29.0753 -79.6253 220° Southwest 404 465 30,000 -900 Level Miami Center
10:03AM 29.0436 -79.7431 253° West 373 429 28,300 -1,980 Descending Miami Center
10:04AM 29.0103 -79.8489 250° West 368 423 26,100 -2,160 Descending Miami Center
10:05AM 28.9789 -79.9525 251° West 362 417 24,000 -2,100 Descending Miami Center
10:06AM 28.9453 -80.0558 250° West 357 411 21,900 -2,100 Descending Miami Center
10:07AM 28.9158 -80.1569 252° West 345 397 19,800 -2,040 Descending Miami Center
10:08AM 28.8844 -80.2581 250° West 335 386 17,900 -1,920 Descending Miami Center
10:10AM 28.8167 -80.4833 251° West 313 360 14,000 -1,260 Descending Orlando TRACON
10:11AM 28.8000 -80.5833 259° West 312 359 14,000 -480 Level Orlando TRACON
10:12AM 28.7833 -80.6833 259° West 309 356 13,100 -1,140 Descending Orlando TRACON
10:13AM 28.8000 -80.7667 283° West 288 331 11,800 -1,320 Descending Orlando TRACON
10:14AM 28.8000 -80.8500 270° West 287 330 10,600 -1,260 Descending Orlando TRACON
10:15AM 28.8000 -80.9500 270° West 280 322 9,300 -1,260 Descending Orlando TRACON
10:16AM 28.8000 -81.0333 270° West 259 298 8,000 -1,320 Descending Orlando TRACON
10:17AM 28.7667 -81.1000 240° Southwest 247 284 6,700 -1,140 Descending Orlando TRACON
10:18AM 28.7500 -81.1833 257° West 230 265 5,800 -1,260 Descending Orlando TRACON
10:19AM 28.7000 -81.2167 210° Southwest 239 275 4,200 -1,380 Descending Orlando TRACON
10:20AM 28.6500 -81.2500 210° Southwest 235 270 3,100 -600 Descending Orlando TRACON
10:21AM 28.5833 -81.2833 204° Southwest 191 220 3,000 -540 Descending Orlando TRACON
10:22AM 28.5333 -81.2833 180° South 177 204 2,100 -900 Descending Orlando TRACON
10:23AM 28.5000 -81.3000 204° Southwest 144 166 1,400 -780 Descending Orlando TRACON
10:24AM 28.4667 -81.3000 180° South 135 155 700 -720 Descending Orlando TRACON